createdAt,value
2023-03-29T00:02:02.262Z,76.96
2023-03-29T00:04:29.087Z,74.69
2023-03-29T00:06:55.996Z,76.16
2023-03-29T00:09:23.488Z,76.62
2023-03-29T00:11:50.161Z,76.41
2023-03-29T00:14:16.796Z,75.18
2023-03-29T00:16:45.109Z,78.31
2023-03-29T00:19:11.968Z,78.27
2023-03-29T00:21:38.607Z,77.66
2023-03-29T00:24:05.661Z,77.95
2023-03-29T00:26:32.292Z,78.92
2023-03-29T00:28:59.000Z,77.53
2023-03-29T00:31:26.523Z,77.15
2023-03-29T00:33:53.278Z,76.77
2023-03-29T00:36:19.989Z,77.10
2023-03-29T00:38:46.708Z,77.45
2023-03-29T00:41:14.126Z,77.29
2023-03-29T00:43:57.483Z,76.88
2023-03-29T00:46:26.296Z,78.41
2023-03-29T00:48:58.038Z,78.69
2023-03-29T00:51:27.848Z,78.83
2023-03-29T00:53:58.726Z,78.61
2023-03-29T00:56:35.016Z,79.00
2023-03-29T00:59:06.238Z,78.36
2023-03-29T01:01:42.364Z,78.95
2023-03-29T01:06:57.175Z,79.59
2023-03-29T01:09:27.406Z,79.81
2023-03-29T01:11:57.584Z,80.29
2023-03-29T01:14:38.691Z,80.92
2023-03-29T01:17:06.771Z,81.78
2023-03-29T01:19:42.477Z,82.26
2023-03-29T01:22:38.922Z,81.56
2023-03-29T01:25:27.025Z,82.02
2023-03-29T01:28:02.670Z,82.16
2023-03-29T01:30:33.570Z,82.38
2023-03-29T01:33:10.730Z,81.99
2023-03-29T01:35:44.941Z,81.26
2023-03-29T01:38:21.695Z,81.14
2023-03-29T01:40:48.423Z,81.44
2023-03-29T01:43:20.922Z,81.40
2023-03-29T01:45:54.816Z,80.76
2023-03-29T01:48:40.941Z,80.70
2023-03-29T01:51:13.693Z,81.48
2023-03-29T01:53:57.632Z,80.62
2023-03-29T01:56:28.428Z,82.03
2023-03-29T01:59:04.172Z,82.67
2023-03-29T02:01:40.612Z,83.87
2023-03-29T02:04:13.474Z,83.77
2023-03-29T02:06:42.139Z,84.35
2023-03-29T02:09:09.316Z,85.21
2023-03-29T02:11:36.524Z,85.26
2023-03-29T02:14:03.657Z,84.86
2023-03-29T02:16:36.556Z,84.53
2023-03-29T02:19:04.069Z,84.42
2023-03-29T02:21:40.112Z,83.83
2023-03-29T02:24:11.511Z,83.20
2023-03-29T02:26:38.252Z,83.64
2023-03-29T02:29:05.061Z,83.46
2023-03-29T02:31:53.852Z,82.65
2023-03-29T02:34:27.539Z,82.54
2023-03-29T02:36:59.097Z,82.17
2023-03-29T02:39:28.353Z,82.23
2023-03-29T02:41:56.299Z,81.77
2023-03-29T02:44:27.282Z,81.22
2023-03-29T02:49:32.816Z,81.35
2023-03-29T02:52:09.091Z,81.55
2023-03-29T02:57:10.589Z,81.24
2023-03-29T02:59:38.850Z,81.43
2023-03-29T03:04:37.880Z,80.06
2023-03-29T03:07:07.793Z,80.26
2023-03-29T03:09:34.594Z,79.85
2023-03-29T03:12:01.368Z,78.35
2023-03-29T03:14:28.493Z,77.59
2023-03-29T03:19:29.137Z,78.39
2023-03-29T03:21:56.278Z,75.65
2023-03-29T03:24:23.041Z,75.44
2023-03-29T03:26:50.230Z,74.44
2023-03-29T03:29:17.373Z,74.88
2023-03-29T03:34:16.029Z,74.81
2023-03-29T03:36:42.926Z,74.79
2023-03-29T03:39:09.869Z,74.42
2023-03-29T03:41:36.697Z,74.48
2023-03-29T03:44:03.430Z,73.98
2023-03-29T03:46:30.108Z,73.52
2023-03-29T03:48:56.823Z,72.71
2023-03-29T03:51:23.639Z,72.15
2023-03-29T03:56:30.143Z,71.02
2023-03-29T03:58:57.317Z,70.52
2023-03-29T04:01:24.719Z,70.48
2023-03-29T04:03:51.696Z,70.31
2023-03-29T04:06:18.846Z,70.41
2023-03-29T04:08:45.771Z,70.29
2023-03-29T04:11:12.502Z,70.73
2023-03-29T04:13:39.256Z,70.78
2023-03-29T04:18:39.708Z,70.42
2023-03-29T04:21:06.542Z,70.59
2023-03-29T04:23:33.253Z,69.88
2023-03-29T04:25:59.943Z,69.87
2023-03-29T04:28:26.658Z,69.79
2023-03-29T04:30:53.350Z,69.81
2023-03-29T04:33:20.234Z,69.24
2023-03-29T04:35:47.099Z,69.70
2023-03-29T04:38:13.819Z,69.45
2023-03-29T04:40:40.566Z,68.05
2023-03-29T04:43:07.243Z,67.80
2023-03-29T04:45:33.940Z,67.78
2023-03-29T04:48:00.722Z,67.85
2023-03-29T04:50:28.163Z,67.65
2023-03-29T04:52:54.783Z,67.21
2023-03-29T04:55:21.536Z,67.17
2023-03-29T04:57:48.266Z,67.24
2023-03-29T05:00:15.759Z,66.99
2023-03-29T05:02:46.116Z,66.62
2023-03-29T05:05:14.131Z,67.63
2023-03-29T05:07:41.172Z,68.42
2023-03-29T05:10:08.696Z,67.27
2023-03-29T05:12:35.533Z,67.22
2023-03-29T05:15:02.621Z,66.40
2023-03-29T05:17:29.317Z,68.28
2023-03-29T05:19:55.960Z,68.45
2023-03-29T05:22:23.630Z,68.15
2023-03-29T05:24:51.771Z,68.71
2023-03-29T05:27:18.968Z,68.91
2023-03-29T05:29:45.643Z,70.16
2023-03-29T05:32:13.177Z,71.16
2023-03-29T05:34:40.004Z,72.79
2023-03-29T05:37:06.741Z,72.03
2023-03-29T05:39:35.741Z,72.91
2023-03-29T05:42:04.772Z,72.39
2023-03-29T05:44:31.777Z,73.24
2023-03-29T05:46:58.535Z,68.80
2023-03-29T05:51:59.930Z,66.00
2023-03-29T05:54:26.744Z,67.80
2023-03-29T05:56:53.523Z,67.21
2023-03-29T05:59:20.407Z,68.05
2023-03-29T06:01:47.238Z,64.96
2023-03-29T06:04:15.209Z,66.84
2023-03-29T06:06:42.480Z,64.82
2023-03-29T06:09:10.137Z,63.54
2023-03-29T06:11:36.977Z,63.88
2023-03-29T06:14:03.794Z,63.68
2023-03-29T06:16:30.961Z,61.53
2023-03-29T06:18:57.815Z,62.26
2023-03-29T06:21:26.786Z,61.31
2023-03-29T06:23:53.461Z,61.43
2023-03-29T06:26:20.357Z,62.00
2023-03-29T06:28:49.197Z,62.46
2023-03-29T06:31:17.500Z,66.28
2023-03-29T06:33:44.336Z,63.11
2023-03-29T06:36:12.239Z,65.12
2023-03-29T06:38:39.019Z,65.95
2023-03-29T06:41:07.826Z,66.02
2023-03-29T06:43:35.099Z,65.68
2023-03-29T06:46:02.176Z,67.52
2023-03-29T06:48:29.302Z,68.81
2023-03-29T06:50:56.717Z,69.28
2023-03-29T06:53:23.446Z,68.56
2023-03-29T06:55:52.028Z,70.09
2023-03-29T06:58:18.812Z,70.19
2023-03-29T07:00:45.959Z,71.83
2023-03-29T07:03:20.143Z,69.81
2023-03-29T07:08:31.450Z,69.83
2023-03-29T07:10:59.597Z,70.66
2023-03-29T07:13:26.600Z,67.87
2023-03-29T07:15:53.477Z,63.08
2023-03-29T07:18:20.479Z,65.38
2023-03-29T07:20:48.597Z,66.54
2023-03-29T07:23:15.803Z,67.98
2023-03-29T07:25:42.517Z,67.85
2023-03-29T07:28:09.349Z,67.49
2023-03-29T07:30:37.341Z,67.57
2023-03-29T07:33:04.755Z,67.74
2023-03-29T07:35:31.547Z,68.19
2023-03-29T07:37:58.838Z,67.87
2023-03-29T07:40:26.604Z,66.34
2023-03-29T07:42:55.340Z,65.64
2023-03-29T07:45:26.721Z,66.81
2023-03-29T07:47:57.389Z,66.75
2023-03-29T07:50:24.863Z,65.33
2023-03-29T07:52:51.815Z,64.64
2023-03-29T07:55:18.685Z,63.41
2023-03-29T07:57:45.526Z,63.58
2023-03-29T08:02:52.569Z,63.16
2023-03-29T08:05:37.952Z,63.01
2023-03-29T08:08:07.634Z,61.37
2023-03-29T08:13:15.606Z,59.56
2023-03-29T08:15:46.423Z,60.99
2023-03-29T08:18:13.225Z,62.49
2023-03-29T08:20:40.238Z,61.33
2023-03-29T08:23:07.186Z,61.50
2023-03-29T08:25:35.384Z,62.68
2023-03-29T08:28:02.236Z,61.53
2023-03-29T08:30:29.113Z,60.65
2023-03-29T08:32:56.539Z,62.14
2023-03-29T08:35:23.349Z,62.06
2023-03-29T08:37:50.061Z,62.03
2023-03-29T08:40:21.614Z,62.29
2023-03-29T08:46:00.353Z,63.61
2023-03-29T08:48:42.540Z,63.39
2023-03-29T08:51:33.443Z,62.81
2023-03-29T08:54:04.392Z,62.47
2023-03-29T08:56:35.015Z,60.07
2023-03-29T08:59:02.365Z,60.61
2023-03-29T09:01:35.072Z,60.21
2023-03-29T09:04:09.985Z,60.11
2023-03-29T09:06:39.779Z,60.03
2023-03-29T09:09:15.430Z,60.40
2023-03-29T09:11:49.220Z,60.66
2023-03-29T09:14:27.650Z,59.65
2023-03-29T09:17:25.986Z,58.68
2023-03-29T09:20:07.990Z,58.89
2023-03-29T09:22:46.859Z,56.74
2023-03-29T09:25:34.498Z,56.60
2023-03-29T09:28:19.539Z,55.60
2023-03-29T09:30:56.778Z,55.35
2023-03-29T09:33:28.584Z,55.00
2023-03-29T09:36:12.457Z,55.11
2023-03-29T09:38:43.881Z,55.24
2023-03-29T09:41:29.672Z,54.29
2023-03-29T09:44:00.681Z,53.19
2023-03-29T09:46:36.588Z,54.60
2023-03-29T09:49:10.585Z,54.00
2023-03-29T09:51:38.702Z,53.11
2023-03-29T09:54:05.442Z,52.43
2023-03-29T09:56:32.675Z,52.22
2023-03-29T09:58:59.388Z,51.41
2023-03-29T10:01:37.338Z,50.65
2023-03-29T10:04:06.973Z,50.82
2023-03-29T10:06:34.568Z,50.36
2023-03-29T10:09:02.520Z,50.01
2023-03-29T10:11:34.992Z,50.57
2023-03-29T10:14:11.855Z,50.56
2023-03-29T10:16:41.594Z,50.50
2023-03-29T10:19:28.501Z,50.54
2023-03-29T10:22:00.636Z,48.91
2023-03-29T10:24:27.840Z,49.19
2023-03-29T10:26:59.117Z,48.76
2023-03-29T10:29:28.147Z,49.16
2023-03-29T10:31:55.354Z,48.96
2023-03-29T10:34:26.273Z,48.42
2023-03-29T10:37:01.450Z,48.66
2023-03-29T10:39:33.033Z,48.87
2023-03-29T10:42:01.396Z,49.26
2023-03-29T10:44:33.283Z,49.87
2023-03-29T10:47:16.293Z,50.03
2023-03-29T10:49:47.419Z,48.96
2023-03-29T10:52:15.342Z,48.86
2023-03-29T10:54:42.309Z,48.38
2023-03-29T10:57:12.914Z,48.29
2023-03-29T10:59:46.453Z,49.26
2023-03-29T11:02:15.860Z,48.43
2023-03-29T11:04:45.267Z,48.92
2023-03-29T11:07:17.617Z,48.65
2023-03-29T11:09:55.904Z,49.71
2023-03-29T11:12:40.843Z,47.25
2023-03-29T11:15:22.563Z,47.07
2023-03-29T11:18:11.144Z,46.22
2023-03-29T11:20:45.896Z,46.22
2023-03-29T11:23:18.890Z,46.94
2023-03-29T11:26:00.467Z,45.50
2023-03-29T11:28:47.965Z,45.10
2023-03-29T11:31:44.168Z,45.95
2023-03-29T11:34:31.108Z,46.49
2023-03-29T11:37:27.074Z,45.48
2023-03-29T11:40:23.399Z,45.73
2023-03-29T11:42:55.061Z,45.68
2023-03-29T11:45:40.682Z,45.88
2023-03-29T11:48:16.901Z,45.49
2023-03-29T11:50:51.211Z,45.71
2023-03-29T11:53:26.875Z,44.16
2023-03-29T11:55:55.655Z,44.38
2023-03-29T11:58:31.514Z,45.03
2023-03-29T12:01:04.550Z,44.21
2023-03-29T12:03:47.500Z,44.22
2023-03-29T12:06:34.665Z,44.37
2023-03-29T12:09:14.255Z,44.65
2023-03-29T12:11:54.609Z,44.24
2023-03-29T12:14:28.421Z,46.02
2023-03-29T12:17:03.335Z,45.00
2023-03-29T12:19:43.637Z,45.76
2023-03-29T12:22:10.829Z,45.37
2023-03-29T12:24:42.116Z,45.80
2023-03-29T12:30:12.916Z,45.65
2023-03-29T12:38:45.748Z,47.56
2023-03-29T12:41:19.285Z,47.33
2023-03-29T12:43:46.956Z,46.51
2023-03-29T12:46:24.615Z,47.26
2023-03-29T12:49:06.188Z,47.02
2023-03-29T12:51:35.759Z,47.26
2023-03-29T12:54:26.218Z,48.72
2023-03-29T12:57:00.703Z,47.98
2023-03-29T12:59:43.884Z,47.14
2023-03-29T13:02:14.159Z,47.15
2023-03-29T13:04:44.023Z,46.28
2023-03-29T13:07:22.948Z,47.40
2023-03-29T13:10:02.455Z,46.57
2023-03-29T13:12:35.089Z,46.73
2023-03-29T13:15:08.459Z,47.04
2023-03-29T13:17:59.363Z,46.45
2023-03-29T13:20:47.314Z,46.72
2023-03-29T13:23:28.693Z,48.35
2023-03-29T13:29:48.085Z,47.86
2023-03-29T13:32:27.782Z,47.59
2023-03-29T13:35:10.780Z,49.88
2023-03-29T13:37:58.474Z,50.32
2023-03-29T13:40:31.962Z,48.70
2023-03-29T13:43:19.442Z,48.90
2023-03-29T13:46:17.898Z,47.95
2023-03-29T13:48:47.560Z,49.98
2023-03-29T13:51:14.244Z,50.07
2023-03-29T13:53:52.161Z,50.58
2023-03-29T13:59:34.434Z,48.69
2023-03-29T14:02:03.298Z,49.01
2023-03-29T14:04:38.189Z,49.56
2023-03-29T14:07:08.408Z,50.26
2023-03-29T14:09:41.609Z,49.28
2023-03-29T14:14:58.718Z,50.95
2023-03-29T14:17:27.351Z,52.31
2023-03-29T14:19:58.429Z,54.23
2023-03-29T14:22:30.939Z,56.24
2023-03-29T14:25:02.267Z,58.92
2023-03-29T14:27:32.054Z,61.28
2023-03-29T14:32:32.577Z,64.08
2023-03-29T14:35:00.845Z,64.49
2023-03-29T14:37:29.336Z,65.39
2023-03-29T14:39:58.748Z,68.55
2023-03-29T14:42:28.073Z,72.54
2023-03-29T14:45:06.520Z,71.88
2023-03-29T14:47:34.088Z,72.10
2023-03-29T14:50:02.077Z,72.25
2023-03-29T14:52:30.731Z,72.84
2023-03-29T14:55:00.562Z,71.33
2023-03-29T14:57:33.674Z,70.81
2023-03-29T15:00:13.645Z,71.37
2023-03-29T15:02:58.917Z,70.80
2023-03-29T15:05:44.458Z,69.03
2023-03-29T15:08:18.092Z,68.56
2023-03-29T15:10:45.158Z,68.62
2023-03-29T15:13:18.808Z,66.27
2023-03-29T15:15:46.525Z,66.45
2023-03-29T15:18:17.178Z,65.47
2023-03-29T15:20:45.268Z,65.01
2023-03-29T15:23:14.490Z,65.72
2023-03-29T15:25:56.173Z,65.33
2023-03-29T15:28:26.245Z,65.62
2023-03-29T15:31:07.284Z,65.47
2023-03-29T15:33:37.937Z,65.96
2023-03-29T15:36:07.162Z,65.50
2023-03-29T15:38:43.277Z,65.66
2023-03-29T15:41:10.830Z,65.61
2023-03-29T15:43:38.094Z,66.33
2023-03-29T15:46:05.298Z,66.11
2023-03-29T15:48:34.046Z,66.37
2023-03-29T15:51:06.095Z,67.25
2023-03-29T15:53:33.515Z,67.07
2023-03-29T15:56:02.422Z,68.27
2023-03-29T15:58:31.865Z,66.71
2023-03-29T16:03:54.894Z,67.77
2023-03-29T16:06:24.034Z,67.83
2023-03-29T16:08:50.783Z,67.53
2023-03-29T16:11:17.677Z,67.58
2023-03-29T16:13:44.438Z,66.83
2023-03-29T16:16:11.694Z,67.17
2023-03-29T16:18:38.425Z,67.83
2023-03-29T16:21:05.670Z,68.16
2023-03-29T16:23:32.819Z,68.83
2023-03-29T16:25:59.714Z,68.14
2023-03-29T16:30:57.647Z,67.29
2023-03-29T16:33:24.358Z,67.54
2023-03-29T16:35:51.360Z,67.96
2023-03-29T16:40:51.021Z,68.25
2023-03-29T16:43:18.935Z,68.68
2023-03-29T16:45:45.693Z,68.58
2023-03-29T16:50:51.531Z,68.60
2023-03-29T16:53:18.923Z,68.43
2023-03-29T16:55:46.854Z,68.90
2023-03-29T16:58:13.618Z,68.43
2023-03-29T17:03:12.456Z,69.13
2023-03-29T17:05:41.751Z,68.59
2023-03-29T17:08:10.641Z,69.01
2023-03-29T17:10:40.868Z,68.90
2023-03-29T17:13:08.312Z,69.35
2023-03-29T17:15:36.713Z,69.94
2023-03-29T17:18:05.805Z,69.46
2023-03-29T17:20:32.545Z,69.46
2023-03-29T17:22:59.284Z,69.79
2023-03-29T17:25:26.243Z,69.95
2023-03-29T17:27:54.292Z,70.33
2023-03-29T17:30:21.063Z,71.21
2023-03-29T17:32:47.843Z,72.13
2023-03-29T17:35:14.765Z,74.90
2023-03-29T17:37:42.211Z,75.26
2023-03-29T17:40:10.715Z,74.73
2023-03-29T17:42:37.411Z,73.65
2023-03-29T17:45:04.628Z,72.69
2023-03-29T17:47:31.419Z,73.10
2023-03-29T17:49:58.117Z,73.25
2023-03-29T17:57:43.176Z,74.39
2023-03-29T18:00:14.898Z,72.57
2023-03-29T18:02:42.114Z,72.41
2023-03-29T18:05:10.408Z,72.92
2023-03-29T18:07:37.595Z,72.19
2023-03-29T18:10:05.412Z,71.84
2023-03-29T18:12:32.134Z,71.42
2023-03-29T18:14:59.620Z,71.81
2023-03-29T18:17:27.685Z,71.85
2023-03-29T18:19:54.613Z,71.33
2023-03-29T18:22:21.960Z,71.21
2023-03-29T18:24:49.494Z,70.03
2023-03-29T18:27:16.197Z,70.59
2023-03-29T18:29:44.243Z,70.61
2023-03-29T18:32:11.776Z,71.23
2023-03-29T18:34:39.502Z,70.92
2023-03-29T18:37:06.486Z,70.78
2023-03-29T18:39:34.999Z,70.83
2023-03-29T18:42:01.851Z,70.63
2023-03-29T18:44:28.971Z,71.26
2023-03-29T18:46:59.163Z,70.95
2023-03-29T18:49:26.174Z,70.62
2023-03-29T18:51:54.596Z,69.97
2023-03-29T18:54:24.409Z,69.65
2023-03-29T18:56:51.662Z,69.22
2023-03-29T19:01:50.101Z,69.42
2023-03-29T19:04:16.846Z,69.30
2023-03-29T19:06:46.398Z,69.27
2023-03-29T19:09:13.218Z,69.48
2023-03-29T19:11:39.827Z,68.98
2023-03-29T19:14:09.196Z,68.78
2023-03-29T19:16:36.440Z,68.32
2023-03-29T19:19:05.192Z,67.31
2023-03-29T19:21:32.597Z,66.08
2023-03-29T19:24:01.227Z,65.34
2023-03-29T19:26:29.739Z,65.32
2023-03-29T19:28:56.545Z,64.88
2023-03-29T19:31:23.490Z,65.12
2023-03-29T19:33:50.115Z,65.18
2023-03-29T19:36:17.304Z,64.94
2023-03-29T19:38:45.011Z,64.65
2023-03-29T19:43:43.297Z,63.84
2023-03-29T19:46:11.962Z,62.77
2023-03-29T19:48:39.385Z,62.54
2023-03-29T19:51:06.156Z,62.22
2023-03-29T19:53:33.077Z,61.79
2023-03-29T19:55:59.941Z,61.68
2023-03-29T19:58:26.703Z,61.60
2023-03-29T20:00:58.198Z,61.37
2023-03-29T20:03:28.569Z,61.38
2023-03-29T20:05:58.238Z,61.04
2023-03-29T20:08:25.167Z,61.04
2023-03-29T20:11:03.935Z,61.22
2023-03-29T20:13:38.124Z,61.40
2023-03-29T20:16:08.658Z,61.06
2023-03-29T20:18:38.546Z,60.46
2023-03-29T20:21:07.441Z,59.91
2023-03-29T20:23:34.977Z,59.54
2023-03-29T20:26:01.855Z,59.50
2023-03-29T20:28:28.586Z,59.45
2023-03-29T20:30:55.652Z,59.49
2023-03-29T20:33:22.466Z,58.72
2023-03-29T20:35:49.473Z,58.66
2023-03-29T20:38:16.442Z,58.49
2023-03-29T20:40:43.309Z,58.00
2023-03-29T20:43:13.733Z,58.76
2023-03-29T20:45:52.728Z,59.51
2023-03-29T20:48:23.595Z,59.11
2023-03-29T20:50:50.955Z,58.52
2023-03-29T20:53:18.529Z,58.18
2023-03-29T20:58:16.591Z,56.05
2023-03-29T21:00:44.079Z,55.47
2023-03-29T21:03:11.529Z,54.43
2023-03-29T21:05:39.054Z,54.42
2023-03-29T21:08:06.190Z,54.20
2023-03-29T21:10:33.089Z,54.95
2023-03-29T21:13:00.767Z,54.33
2023-03-29T21:15:28.818Z,54.26
2023-03-29T21:17:55.703Z,54.19
2023-03-29T21:20:22.545Z,53.80
2023-03-29T21:22:49.238Z,53.88
2023-03-29T21:25:16.159Z,54.04
2023-03-29T21:27:43.354Z,53.19
2023-03-29T21:30:11.187Z,52.85
2023-03-29T21:32:38.132Z,52.67
2023-03-29T21:35:05.392Z,52.78
2023-03-29T21:37:32.081Z,52.94
2023-03-29T21:39:58.796Z,53.04
2023-03-29T21:42:25.775Z,53.18
2023-03-29T21:44:52.461Z,53.00
2023-03-29T21:47:19.225Z,53.42
2023-03-29T21:49:45.913Z,53.68
2023-03-29T21:52:13.150Z,54.02
2023-03-29T21:54:39.821Z,54.05
2023-03-29T21:57:06.571Z,54.21
2023-03-29T21:59:33.353Z,54.26
2023-03-29T22:02:00.147Z,54.80
2023-03-29T22:04:36.488Z,54.50
2023-03-29T22:09:35.697Z,55.01
2023-03-29T22:12:04.118Z,55.11
2023-03-29T22:14:35.212Z,55.62
2023-03-29T22:17:03.298Z,55.55
2023-03-29T22:19:29.987Z,55.57
2023-03-29T22:22:01.696Z,55.42
2023-03-29T22:24:29.335Z,55.61
2023-03-29T22:26:56.393Z,55.76
2023-03-29T22:31:54.595Z,56.16
2023-03-29T22:34:21.490Z,56.49
2023-03-29T22:36:48.270Z,56.66
2023-03-29T22:39:14.946Z,56.81
2023-03-29T22:41:42.264Z,57.08
2023-03-29T22:44:09.056Z,56.63
2023-03-29T22:46:35.907Z,56.76
2023-03-29T22:49:02.776Z,56.87
2023-03-29T22:51:29.542Z,56.63
2023-03-29T22:53:56.394Z,56.84
2023-03-29T22:56:23.551Z,57.31
2023-03-29T22:58:50.453Z,57.06
2023-03-29T23:01:17.181Z,57.42
2023-03-29T23:03:43.953Z,57.27
2023-03-29T23:06:10.781Z,57.59
2023-03-29T23:08:37.453Z,57.48
2023-03-29T23:11:04.692Z,57.38
2023-03-29T23:13:33.758Z,57.61
2023-03-29T23:16:02.559Z,57.78
2023-03-29T23:18:31.755Z,57.57
2023-03-29T23:20:59.149Z,57.17
2023-03-29T23:26:00.143Z,57.56
2023-03-29T23:28:30.757Z,57.58
2023-03-29T23:33:35.786Z,57.82
2023-03-29T23:36:04.787Z,58.05
2023-03-29T23:38:34.400Z,58.96
2023-03-29T23:41:03.386Z,58.90
2023-03-29T23:43:35.504Z,58.32
2023-03-29T23:46:05.417Z,58.21
2023-03-29T23:48:32.965Z,57.77
2023-03-29T23:51:00.231Z,57.14
2023-03-29T23:53:29.108Z,57.40
2023-03-29T23:56:00.623Z,56.38
2023-03-29T23:58:32.944Z,56.40
